Time;durP1;ratioP1;P1;durP2;ratioP2;P2;SDS_P1;SDS_P2;PMS_P1;PMS_P2;Temp;Humidity;BMP_temperature;BMP_pressure;BME280_temperature;BME280_humidity;BME280_pressure;Samples;Min_cycle;Max_cycle;Signal;HPM_P1;HPM_P2
2023/06/10 00:00:59;;;;;;;10.95;10.65;;;17.10;99.90;;;;;;5006701;28;20223;-84
2023/06/10 00:03:36;;;;;;;11.02;10.73;;;17.10;99.90;;;;;;5004962;28;20300;-84
2023/06/10 00:06:12;;;;;;;11.07;10.77;;;17.10;99.90;;;;;;5005574;28;20243;-84
2023/06/10 00:08:42;;;;;;;11.50;11.10;;;17.00;99.90;;;;;;5006173;28;20245;-84
2023/06/10 00:11:11;;;;;;;11.20;10.90;;;16.90;99.90;;;;;;5005430;28;20220;-84
2023/06/10 00:13:50;;;;;;;10.90;10.60;;;16.80;99.90;;;;;;5005368;28;20240;-84
2023/06/10 00:16:21;;;;;;;11.07;10.77;;;16.80;99.90;;;;;;5005603;28;20969;-84
2023/06/10 00:18:55;;;;;;;10.90;10.60;;;16.70;99.90;;;;;;5005393;28;20233;-84
2023/06/10 00:21:29;;;;;;;10.80;10.50;;;16.70;99.90;;;;;;5004930;28;20239;-84
2023/06/10 00:24:02;;;;;;;11.02;10.73;;;16.70;99.90;;;;;;5005247;28;20231;-84
2023/06/10 00:26:31;;;;;;;11.18;10.88;;;16.60;99.90;;;;;;5005304;28;20239;-84
2023/06/10 00:29:08;;;;;;;11.00;10.70;;;16.60;99.90;;;;;;5004423;28;20243;-84
2023/06/10 00:31:44;;;;;;;11.07;10.77;;;16.50;99.90;;;;;;5005943;28;20258;-84
2023/06/10 00:34:22;;;;;;;11.30;10.95;;;16.50;99.90;;;;;;5006088;28;20228;-84
2023/06/10 00:37:01;;;;;;;11.20;10.90;;;16.50;99.90;;;;;;5005878;28;20352;-84
2023/06/10 00:39:31;;;;;;;11.00;10.70;;;16.40;99.90;;;;;;5007355;28;20240;-84
2023/06/10 00:42:01;;;;;;;11.10;10.80;;;16.40;99.90;;;;;;5009477;28;20229;-84
2023/06/10 00:44:28;;;;;;;11.10;10.80;;;16.40;99.90;;;;;;5008808;28;20231;-84
2023/06/10 00:47:07;;;;;;;10.95;10.65;;;16.30;99.90;;;;;;5008456;28;20337;-83
2023/06/10 00:49:37;;;;;;;11.05;10.75;;;16.30;99.90;;;;;;5012659;28;20225;-84
2023/06/10 00:52:15;;;;;;;11.10;10.80;;;16.30;99.90;;;;;;5008653;28;20225;-83
2023/06/10 00:54:46;;;;;;;11.38;10.98;;;16.30;99.90;;;;;;5005440;28;20295;-84
2023/06/10 00:57:14;;;;;;;11.00;10.70;;;16.20;99.90;;;;;;5006625;28;20236;-84
2023/06/10 01:02:30;;;;;;;11.25;10.88;;;16.20;99.90;;;;;;5018540;28;20213;-83
2023/06/10 01:04:59;;;;;;;11.00;10.70;;;16.10;99.90;;;;;;5017242;28;20224;-84
2023/06/10 01:07:39;;;;;;;11.32;10.95;;;16.10;99.90;;;;;;5006304;28;20240;-84
2023/06/10 01:10:26;;;;;;;11.10;10.80;;;16.00;99.90;;;;;;5010346;28;20606;-83
2023/06/10 01:13:02;;;;;;;11.32;10.93;;;16.00;99.90;;;;;;5010237;28;20213;-84
2023/06/10 01:15:32;;;;;;;10.75;10.45;;;16.00;99.90;;;;;;5008347;28;20232;-84
2023/06/10 01:18:03;;;;;;;10.90;10.60;;;15.90;99.90;;;;;;5006826;28;20233;-84
2023/06/10 01:20:33;;;;;;;10.90;10.60;;;15.90;99.90;;;;;;5005382;28;20232;-84
2023/06/10 01:26:06;;;;;;;11.00;10.70;;;15.80;99.90;;;;;;5004170;28;20237;-83
2023/06/10 01:28:43;;;;;;;10.93;10.63;;;15.80;99.90;;;;;;5004232;28;20233;-81
2023/06/10 01:31:22;;;;;;;10.93;10.63;;;15.70;99.90;;;;;;5003666;28;20342;-84
2023/06/10 01:33:54;;;;;;;10.90;10.60;;;15.60;99.90;;;;;;5004338;28;20245;-84
2023/06/10 01:36:31;;;;;;;11.00;10.70;;;15.60;99.90;;;;;;5003114;28;20261;-84
2023/06/10 01:39:07;;;;;;;11.23;10.90;;;15.50;99.90;;;;;;5004158;28;20267;-84
2023/06/10 01:41:37;;;;;;;11.10;10.80;;;15.40;99.90;;;;;;5003792;28;20228;-84
2023/06/10 01:44:07;;;;;;;11.10;10.80;;;15.40;99.90;;;;;;5003916;28;20225;-84
2023/06/10 01:46:36;;;;;;;11.27;10.98;;;15.40;99.90;;;;;;5003819;28;20241;-84
2023/06/10 01:49:06;;;;;;;11.10;10.80;;;15.40;99.90;;;;;;5013351;28;20252;-83
2023/06/10 01:51:38;;;;;;;11.45;11.05;;;15.40;99.90;;;;;;5013360;28;20233;-84
2023/06/10 01:54:15;;;;;;;11.30;10.90;;;15.40;99.90;;;;;;5005587;28;20221;-83
2023/06/10 01:56:51;;;;;;;11.13;10.82;;;15.50;99.90;;;;;;5003880;28;20229;-84
2023/06/10 01:59:21;;;;;;;11.00;10.70;;;15.50;99.90;;;;;;5003921;28;20229;-84
2023/06/10 02:01:51;;;;;;;11.35;11.00;;;15.50;99.90;;;;;;5003354;28;20268;-84
2023/06/10 02:04:20;;;;;;;11.60;11.20;;;15.50;99.90;;;;;;5004481;28;20221;-85
2023/06/10 02:06:50;;;;;;;11.48;11.07;;;15.50;99.90;;;;;;5003821;28;20239;-84
2023/06/10 02:09:22;;;;;;;11.02;10.73;;;15.50;99.90;;;;;;5003373;28;20240;-83
2023/06/10 02:11:50;;;;;;;10.98;10.68;;;15.50;99.90;;;;;;5003469;28;20223;-83
2023/06/10 02:14:18;;;;;;;10.80;10.50;;;15.50;99.90;;;;;;5003724;28;20217;-84
2023/06/10 02:16:48;;;;;;;11.02;10.73;;;15.40;99.90;;;;;;5003559;28;20241;-84
2023/06/10 02:19:21;;;;;;;11.00;10.70;;;15.40;99.90;;;;;;5006112;28;20256;-84
2023/06/10 02:21:49;;;;;;;11.35;10.98;;;15.40;99.90;;;;;;5000453;28;20229;-84
2023/06/10 02:24:27;;;;;;;11.43;11.02;;;15.40;99.90;;;;;;5005092;28;20244;-84
2023/06/10 02:26:55;;;;;;;11.15;10.85;;;15.40;99.90;;;;;;5006562;28;20233;-84
2023/06/10 02:29:25;;;;;;;11.18;10.88;;;15.40;99.90;;;;;;5006703;28;20264;-84
2023/06/10 02:31:54;;;;;;;11.10;10.80;;;15.40;99.90;;;;;;5007041;28;20237;-84
2023/06/10 02:34:23;;;;;;;11.02;10.73;;;15.40;99.90;;;;;;5006586;28;20246;-84
2023/06/10 02:36:53;;;;;;;11.18;10.88;;;15.40;99.90;;;;;;5006820;28;20283;-84
2023/06/10 02:42:09;;;;;;;11.13;10.82;;;15.30;99.90;;;;;;5006397;28;20224;-84
2023/06/10 02:44:39;;;;;;;11.30;10.90;;;15.30;99.90;;;;;;5007078;28;20319;-84
2023/06/10 02:47:10;;;;;;;11.45;11.05;;;15.30;99.90;;;;;;5006424;28;20251;-83
2023/06/10 02:49:40;;;;;;;11.30;10.90;;;15.30;99.90;;;;;;5017878;28;20233;-82
2023/06/10 02:52:17;;;;;;;11.05;10.75;;;15.20;99.90;;;;;;5012447;28;20252;-84
2023/06/10 02:54:48;;;;;;;11.40;11.00;;;15.10;99.90;;;;;;5008681;28;20288;-84
2023/06/10 02:57:24;;;;;;;11.50;11.10;;;15.00;99.90;;;;;;5000535;28;20233;-84
2023/06/10 02:59:53;;;;;;;11.50;11.10;;;14.90;99.90;;;;;;5007036;28;20228;-84
2023/06/10 03:02:28;;;;;;;11.85;11.45;;;14.80;99.90;;;;;;5006087;28;20241;-84
2023/06/10 03:05:03;;;;;;;11.18;10.88;;;14.90;99.90;;;;;;5006130;28;20228;-84
2023/06/10 03:07:35;;;;;;;11.80;11.40;;;14.90;99.90;;;;;;5005998;28;20235;-84
2023/06/10 03:10:09;;;;;;;11.68;11.27;;;14.90;99.90;;;;;;5006214;28;20228;-84
2023/06/10 03:12:40;;;;;;;11.48;11.07;;;14.90;99.90;;;;;;5008228;28;20232;-84
2023/06/10 03:15:11;;;;;;;11.48;11.07;;;14.90;99.90;;;;;;5007884;28;20232;-84
2023/06/10 03:17:39;;;;;;;11.65;11.25;;;14.90;99.90;;;;;;5007060;28;20232;-84
2023/06/10 03:20:16;;;;;;;11.40;11.00;;;14.90;99.90;;;;;;5006503;28;20228;-83
2023/06/10 03:22:44;;;;;;;11.60;11.20;;;14.90;99.90;;;;;;5005631;28;20236;-84
2023/06/10 03:25:34;;;;;;;11.50;11.10;;;14.90;99.90;;;;;;5005957;28;20233;-84
2023/06/10 03:30:49;;;;;;;11.00;10.70;;;14.90;99.90;;;;;;5004666;28;20225;-84
2023/06/10 03:33:17;;;;;;;11.13;10.77;;;15.00;99.90;;;;;;5000376;28;20292;-83
2023/06/10 03:35:47;;;;;;;10.90;10.60;;;14.90;99.90;;;;;;4985111;28;20229;-83
2023/06/10 03:38:16;;;;;;;11.10;10.80;;;14.90;99.90;;;;;;4986270;28;20232;-84
2023/06/10 03:40:48;;;;;;;11.00;10.70;;;14.90;99.90;;;;;;4986216;28;20244;-83
2023/06/10 03:43:25;;;;;;;10.73;10.43;;;14.80;99.90;;;;;;4988169;28;20236;-83
2023/06/10 03:45:53;;;;;;;10.85;10.55;;;14.80;99.90;;;;;;4996015;28;20245;-83
2023/06/10 03:48:22;;;;;;;10.85;10.55;;;14.80;99.90;;;;;;4996920;28;20234;-82
2023/06/10 03:50:52;;;;;;;10.80;10.50;;;14.80;99.90;;;;;;5001679;28;20221;-81
2023/06/10 03:53:22;;;;;;;10.80;10.50;;;14.80;99.90;;;;;;5001651;28;20242;-83
2023/06/10 03:56:01;;;;;;;10.50;10.20;;;14.70;99.90;;;;;;5001842;28;20236;-84
2023/06/10 03:58:29;;;;;;;10.77;10.48;;;14.70;99.90;;;;;;5001459;28;20213;-84
2023/06/10 04:01:01;;;;;;;10.90;10.60;;;14.60;99.90;;;;;;5002359;28;20214;-81
2023/06/10 04:03:31;;;;;;;10.73;10.43;;;14.70;99.90;;;;;;5002388;28;20221;-83
2023/06/10 04:06:00;;;;;;;10.77;10.48;;;14.80;99.90;;;;;;5000828;28;20226;-84
2023/06/10 04:08:30;;;;;;;11.02;10.73;;;14.80;99.90;;;;;;5002135;28;20228;-82
2023/06/10 04:11:06;;;;;;;10.50;10.20;;;14.80;99.90;;;;;;5001849;28;20210;-82
2023/06/10 04:13:37;;;;;;;10.80;10.50;;;14.90;99.90;;;;;;5002090;28;20227;-83
2023/06/10 04:16:06;;;;;;;10.90;10.60;;;14.90;99.90;;;;;;5001841;28;20210;-83
2023/06/10 04:18:36;;;;;;;10.70;10.40;;;15.00;99.90;;;;;;5002158;28;20264;-84
2023/06/10 04:21:05;;;;;;;10.85;10.55;;;15.00;99.90;;;;;;5001470;28;20260;-84
2023/06/10 04:23:34;;;;;;;10.80;10.50;;;15.10;99.90;;;;;;5001240;28;20231;-83
2023/06/10 04:26:13;;;;;;;10.73;10.43;;;15.00;99.90;;;;;;5000327;28;20240;-84
2023/06/10 04:28:42;;;;;;;10.43;10.13;;;15.10;99.90;;;;;;5000786;28;20236;-84
2023/06/10 04:31:11;;;;;;;10.50;10.20;;;15.10;99.90;;;;;;4996186;28;20218;-84
2023/06/10 04:33:40;;;;;;;10.80;10.50;;;15.10;99.90;;;;;;4986197;28;20234;-83
2023/06/10 04:36:10;;;;;;;10.70;10.40;;;15.20;99.90;;;;;;4986059;28;20257;-84
2023/06/10 04:38:40;;;;;;;10.73;10.43;;;15.20;99.90;;;;;;4986026;28;20233;-84
2023/06/10 04:41:15;;;;;;;10.88;10.57;;;15.20;99.90;;;;;;4986394;28;20221;-84
2023/06/10 04:43:47;;;;;;;10.70;10.40;;;15.30;99.90;;;;;;4994996;28;20201;-83
2023/06/10 04:46:18;;;;;;;10.90;10.60;;;15.50;99.90;;;;;;4999637;28;20226;-84
2023/06/10 04:48:46;;;;;;;10.80;10.50;;;15.50;99.90;;;;;;4987020;28;20270;-84
2023/06/10 04:51:16;;;;;;;10.90;10.60;;;15.60;99.90;;;;;;4990011;28;20253;-84
2023/06/10 04:53:45;;;;;;;11.30;10.90;;;15.60;99.90;;;;;;4987156;28;20229;-83
2023/06/10 04:56:17;;;;;;;11.25;10.88;;;15.70;99.90;;;;;;4997615;28;20234;-82
2023/06/10 04:58:46;;;;;;;10.93;10.63;;;15.80;99.90;;;;;;4999336;28;20236;-84
2023/06/10 05:01:14;;;;;;;11.00;10.70;;;15.90;99.90;;;;;;4990694;28;20233;-84
2023/06/10 05:03:42;;;;;;;10.90;10.60;;;16.00;99.90;;;;;;4987335;28;20213;-84
2023/06/10 05:06:12;;;;;;;10.90;10.60;;;16.10;99.90;;;;;;5005513;28;20227;-84
2023/06/10 05:08:41;;;;;;;10.80;10.50;;;16.20;99.90;;;;;;5004982;28;20252;-85
2023/06/10 05:11:11;;;;;;;11.05;10.75;;;16.20;99.90;;;;;;5004474;28;21317;-84
2023/06/10 05:13:50;;;;;;;11.25;10.95;;;16.20;99.90;;;;;;5004175;28;20236;-84
2023/06/10 05:16:19;;;;;;;11.00;10.70;;;16.20;99.90;;;;;;5003662;28;20228;-84
2023/06/10 05:18:50;;;;;;;11.05;10.75;;;16.40;99.90;;;;;;5003001;28;20232;-84
2023/06/10 05:21:21;;;;;;;10.80;10.50;;;16.50;99.90;;;;;;5007793;28;20256;-84
2023/06/10 05:23:49;;;;;;;10.88;10.57;;;16.60;99.90;;;;;;5005019;28;20232;-84
2023/06/10 05:26:17;;;;;;;10.82;10.52;;;16.70;99.90;;;;;;5006900;28;20237;-82
2023/06/10 05:28:58;;;;;;;10.90;10.60;;;16.90;99.90;;;;;;5019489;28;20297;-83
2023/06/10 05:31:26;;;;;;;11.20;10.90;;;17.10;99.90;;;;;;5008559;28;20296;-84
2023/06/10 05:33:55;;;;;;;11.20;10.90;;;17.20;99.90;;;;;;5003954;28;20315;-84
2023/06/10 05:36:25;;;;;;;10.90;10.60;;;17.40;99.90;;;;;;5002325;28;20225;-84
2023/06/10 05:38:56;;;;;;;11.05;10.75;;;17.50;99.90;;;;;;5003122;28;20229;-85
2023/06/10 05:41:23;;;;;;;10.95;10.65;;;17.60;99.90;;;;;;5002384;28;20243;-84
2023/06/10 05:43:55;;;;;;;10.90;10.60;;;17.70;99.90;;;;;;5002580;28;20236;-83
2023/06/10 05:46:23;;;;;;;10.85;10.55;;;17.80;99.90;;;;;;5028816;22;20334;-78
2023/06/10 05:48:51;;;;;;;10.73;10.43;;;17.90;99.90;;;;;;5028768;28;20257;-79
2023/06/10 05:51:22;;;;;;;10.73;10.43;;;18.00;99.90;;;;;;5040029;28;20235;-79
2023/06/10 05:53:50;;;;;;;10.75;10.45;;;18.10;99.90;;;;;;5041034;28;20235;-79
2023/06/10 05:56:17;;;;;;;10.57;10.27;;;18.10;99.90;;;;;;5041605;28;20239;-78
2023/06/10 05:58:46;;;;;;;10.50;10.20;;;18.10;99.90;;;;;;5040339;28;20231;-79
2023/06/10 06:01:15;;;;;;;10.38;10.07;;;18.20;99.90;;;;;;5043402;28;20231;-79
2023/06/10 06:03:43;;;;;;;10.50;10.20;;;18.30;99.90;;;;;;5043032;28;20250;-79
2023/06/10 06:09:17;;;;;;;10.30;10.00;;;18.30;99.90;;;;;;5045679;28;20231;-81
2023/06/10 06:11:47;;;;;;;10.50;10.20;;;18.40;99.90;;;;;;5045675;28;20242;-80
2023/06/10 06:14:24;;;;;;;10.70;10.40;;;18.60;99.90;;;;;;5045533;28;20223;-81
2023/06/10 06:17:03;;;;;;;10.70;10.40;;;18.70;99.90;;;;;;5043127;28;20270;-81
2023/06/10 06:19:38;;;;;;;10.82;10.52;;;18.90;99.90;;;;;;5045916;28;20239;-81
2023/06/10 06:22:20;;;;;;;10.65;10.35;;;19.10;99.90;;;;;;5045277;28;20234;-80
2023/06/10 06:27:35;;;;;;;11.00;10.70;;;19.30;99.90;;;;;;5045037;28;20227;-81
2023/06/10 06:30:11;;;;;;;10.80;10.50;;;19.40;99.90;;;;;;5045802;28;20325;-80
2023/06/10 06:32:51;;;;;;;10.70;10.40;;;19.30;99.90;;;;;;5048179;28;20258;-82
2023/06/10 06:35:19;;;;;;;10.70;10.40;;;19.40;99.90;;;;;;5045737;28;20251;-80
2023/06/10 06:37:52;;;;;;;11.00;10.70;;;19.60;99.90;;;;;;5045354;28;20697;-81
2023/06/10 06:40:20;;;;;;;10.80;10.50;;;19.80;99.90;;;;;;5045478;28;20258;-80
2023/06/10 06:42:48;;;;;;;10.90;10.60;;;19.90;99.90;;;;;;5044309;28;20235;-81
2023/06/10 06:45:20;;;;;;;10.63;10.32;;;19.90;99.90;;;;;;5044506;28;20250;-81
2023/06/10 06:48:03;;;;;;;10.70;10.40;;;20.00;99.90;;;;;;5044226;28;20247;-81
2023/06/10 06:50:43;;;;;;;10.70;10.40;;;19.90;99.90;;;;;;5046324;28;20241;-81
2023/06/10 06:53:28;;;;;;;11.10;10.80;;;20.00;99.90;;;;;;5046152;28;20523;-81
2023/06/10 06:56:03;;;;;;;10.90;10.60;;;20.20;99.90;;;;;;5045123;28;20238;-81
2023/06/10 06:58:42;;;;;;;10.95;10.65;;;20.40;99.90;;;;;;5046569;28;20238;-82
2023/06/10 07:05:03;;;;;;;10.80;10.50;;;20.70;99.90;;;;;;5044291;28;20294;-80
2023/06/10 07:08:48;;;;;;;11.15;10.85;;;20.90;99.90;;;;;;5039467;28;20231;-80
2023/06/10 07:25:12;;;;;;;11.20;10.90;;;21.50;99.90;;;;;;5039897;28;20254;-81
2023/06/10 07:27:46;;;;;;;10.98;10.68;;;21.80;99.90;;;;;;5050546;28;20247;-81
2023/06/10 07:30:46;;;;;;;10.90;10.60;;;21.90;99.90;;;;;;5054281;28;20245;-81
2023/06/10 07:33:32;;;;;;;10.90;10.60;;;22.00;99.90;;;;;;5047777;28;20234;-81
2023/06/10 07:39:24;;;;;;;10.82;10.52;;;22.20;99.90;;;;;;5048678;28;20227;-80
2023/06/10 07:42:01;;;;;;;10.73;10.43;;;22.30;99.90;;;;;;5041668;28;20254;-81
2023/06/10 07:44:43;;;;;;;10.70;10.40;;;22.40;99.90;;;;;;5056020;28;20290;-82
2023/06/10 07:47:24;;;;;;;10.60;10.30;;;22.40;99.90;;;;;;5052769;28;20221;-81
2023/06/10 07:50:31;;;;;;;10.60;10.30;;;22.60;99.90;;;;;;5046846;28;20238;-81
2023/06/10 07:53:19;;;;;;;10.70;10.40;;;22.70;99.90;;;;;;5043177;28;20242;-81
2023/06/10 08:27:45;;;;;;;10.43;10.13;;;24.40;99.90;;;;;;4939665;28;20234;-79
2023/06/10 08:38:19;;;;;;;10.25;9.95;;;24.90;99.90;;;;;;4843779;29;20217;-80
2023/06/10 08:51:26;;;;;;;9.90;9.60;;;25.60;99.90;;;;;;4941966;29;20235;-79
2023/06/10 08:54:07;;;;;;;10.18;9.88;;;25.80;99.90;;;;;;4960350;28;20263;-79
2023/06/10 08:56:41;;;;;;;10.13;9.82;;;26.00;99.90;;;;;;5017411;28;20235;-79
2023/06/10 08:59:11;;;;;;;10.40;10.10;;;26.20;99.90;;;;;;5022277;28;20232;-79
2023/06/10 09:01:39;;;;;;;10.20;9.90;;;26.10;99.90;;;;;;5022408;28;20802;-79
2023/06/10 09:04:12;;;;;;;10.40;10.10;;;26.10;99.90;;;;;;5023214;28;20278;-79
2023/06/10 09:06:41;;;;;;;10.45;10.15;;;26.10;99.90;;;;;;5022867;28;20275;-79
2023/06/10 09:09:12;;;;;;;10.30;10.00;;;26.30;99.90;;;;;;5022869;28;20236;-80
2023/06/10 09:11:40;;;;;;;10.32;10.02;;;26.50;99.90;;;;;;5023911;28;20239;-79
2023/06/10 09:14:08;;;;;;;10.32;10.02;;;26.80;99.90;;;;;;5023540;28;20235;-80
2023/06/10 09:16:37;;;;;;;10.48;10.18;;;27.10;99.90;;;;;;5022473;28;20243;-79
2023/06/10 09:19:07;;;;;;;10.48;10.18;;;27.20;99.90;;;;;;5023205;28;20256;-80
2023/06/10 09:21:53;;;;;;;10.50;10.20;;;27.40;99.90;;;;;;5022560;28;20264;-79
2023/06/10 09:24:22;;;;;;;10.18;9.88;;;27.40;99.90;;;;;;5023024;28;20231;-79
2023/06/10 09:27:06;;;;;;;10.25;9.95;;;27.40;99.90;;;;;;5022514;28;20244;-79
2023/06/10 09:29:34;;;;;;;10.32;10.02;;;27.30;99.90;;;;;;5023165;28;20306;-79
2023/06/10 09:32:03;;;;;;;10.35;10.05;;;27.10;99.90;;;;;;5023129;28;20285;-81
2023/06/10 09:34:31;;;;;;;10.20;9.90;;;27.00;99.90;;;;;;5024199;28;20255;-79
2023/06/10 09:37:03;;;;;;;10.38;10.07;;;26.90;99.90;;;;;;5025544;28;20236;-80
2023/06/10 09:39:33;;;;;;;10.70;10.40;;;26.80;99.90;;;;;;5025611;28;20236;-80
2023/06/10 09:42:00;;;;;;;10.32;10.02;;;26.90;99.90;;;;;;5025519;28;20328;-79
2023/06/10 09:44:28;;;;;;;10.40;10.10;;;27.00;99.90;;;;;;5030392;28;20238;-80
2023/06/10 09:46:59;;;;;;;10.70;10.40;;;27.10;99.90;;;;;;5029389;28;20291;-80
2023/06/10 09:49:30;;;;;;;10.50;10.20;;;27.20;99.90;;;;;;5028444;28;20298;-80
2023/06/10 09:51:58;;;;;;;10.60;10.30;;;27.40;99.90;;;;;;5027399;28;20228;-80
2023/06/10 09:54:38;;;;;;;10.80;10.50;;;27.20;99.90;;;;;;5029753;28;20259;-84
2023/06/10 09:57:12;;;;;;;10.40;10.10;;;27.20;99.90;;;;;;5033963;28;20247;-81
2023/06/10 09:59:40;;;;;;;10.35;10.05;;;27.00;99.90;;;;;;5025631;28;20874;-80
2023/06/10 10:02:10;;;;;;;10.25;9.95;;;27.10;99.90;;;;;;5026953;28;20224;-80
2023/06/10 10:04:38;;;;;;;10.30;10.00;;;27.40;99.90;;;;;;5025905;28;20243;-79
2023/06/10 10:07:07;;;;;;;10.55;10.25;;;27.70;99.90;;;;;;5023717;28;20266;-80
2023/06/10 10:09:40;;;;;;;10.45;10.15;;;27.80;99.90;;;;;;5008000;28;20263;-81
2023/06/10 10:12:12;;;;;;;10.70;10.40;;;27.90;99.90;;;;;;5026092;28;20227;-80
2023/06/10 10:15:10;;;;;;;10.48;10.18;;;27.90;99.90;;;;;;5025678;28;20334;-82
2023/06/10 10:17:53;;;;;;;10.30;10.00;;;27.80;99.90;;;;;;4992484;28;20228;-82
2023/06/10 10:20:26;;;;;;;10.35;10.05;;;28.00;99.90;;;;;;5027413;28;20239;-79
2023/06/10 10:22:58;;;;;;;10.88;10.57;;;28.10;99.90;;;;;;5025485;28;20224;-79
2023/06/10 10:25:34;;;;;;;10.55;10.25;;;28.30;99.90;;;;;;5026084;28;20251;-81
2023/06/10 10:28:12;;;;;;;10.85;10.55;;;28.40;99.90;;;;;;5025387;28;20236;-81
2023/06/10 10:30:46;;;;;;;10.50;10.20;;;28.50;99.90;;;;;;5025558;28;20262;-80
2023/06/10 10:33:22;;;;;;;10.60;10.30;;;28.40;99.90;;;;;;5025761;28;20303;-80
2023/06/10 10:35:55;;;;;;;10.70;10.40;;;28.60;99.90;;;;;;5027817;28;20220;-80
2023/06/10 10:38:26;;;;;;;10.77;10.48;;;28.90;99.90;;;;;;5029790;28;20232;-80
2023/06/10 10:40:59;;;;;;;11.00;10.70;;;29.00;99.90;;;;;;5027883;28;20299;-80
2023/06/10 10:43:28;;;;;;;10.60;10.30;;;29.10;99.90;;;;;;5025685;28;20283;-80
2023/06/10 10:46:03;;;;;;;10.80;10.50;;;28.90;99.90;;;;;;5024723;28;20328;-80
2023/06/10 10:48:40;;;;;;;10.57;10.27;;;28.90;99.90;;;;;;5025172;28;20236;-81
2023/06/10 10:51:10;;;;;;;10.80;10.50;;;28.90;99.90;;;;;;5024523;28;20224;-80
2023/06/10 10:53:40;;;;;;;11.05;10.75;;;28.80;99.90;;;;;;5034958;28;20220;-81
2023/06/10 10:56:19;;;;;;;10.77;10.48;;;28.70;99.90;;;;;;5036270;28;20259;-80
2023/06/10 10:59:06;;;;;;;10.90;10.60;;;28.70;99.90;;;;;;5027403;28;20220;-81
2023/06/10 11:01:46;;;;;;;10.80;10.50;;;28.90;99.90;;;;;;5025069;28;20224;-81
2023/06/10 11:04:14;;;;;;;10.75;10.45;;;28.70;99.90;;;;;;5027154;28;20216;-81
2023/06/10 11:06:53;;;;;;;11.00;10.70;;;28.40;99.90;;;;;;5025621;28;20290;-80
2023/06/10 11:09:29;;;;;;;10.98;10.68;;;28.10;99.90;;;;;;5025476;28;20228;-80
2023/06/10 11:12:01;;;;;;;11.00;10.70;;;27.60;99.90;;;;;;5026108;28;20235;-80
2023/06/10 11:14:31;;;;;;;11.00;10.70;;;27.10;99.90;;;;;;5025266;28;20227;-80
2023/06/10 11:17:06;;;;;;;11.10;10.80;;;26.60;99.90;;;;;;5025586;28;20271;-80
2023/06/10 11:19:37;;;;;;;10.95;10.65;;;26.30;99.90;;;;;;5024988;28;20243;-80
2023/06/10 11:22:09;;;;;;;11.13;10.82;;;26.00;99.90;;;;;;5025126;28;20255;-80
2023/06/10 11:24:38;;;;;;;10.85;10.55;;;26.10;99.90;;;;;;5024570;28;20232;-80
2023/06/10 11:27:25;;;;;;;10.90;10.60;;;26.60;99.90;;;;;;5025336;28;20377;-80
2023/06/10 11:30:20;;;;;;;11.05;10.75;;;27.20;99.90;;;;;;5025271;28;20300;-79
2023/06/10 11:32:56;;;;;;;11.10;10.80;;;27.60;99.90;;;;;;5026642;28;20263;-79
2023/06/10 11:35:27;;;;;;;10.88;10.57;;;28.20;99.90;;;;;;5024465;28;20316;-80
2023/06/10 11:37:55;;;;;;;11.07;10.77;;;28.40;99.90;;;;;;5024367;28;20290;-80
2023/06/10 11:40:26;;;;;;;11.00;10.70;;;28.40;99.90;;;;;;5024059;28;20290;-80
2023/06/10 11:43:05;;;;;;;11.02;10.73;;;28.70;99.90;;;;;;5025166;28;20205;-81
2023/06/10 11:45:33;;;;;;;10.98;10.68;;;28.60;99.90;;;;;;5025286;28;20299;-81
2023/06/10 11:48:01;;;;;;;10.88;10.57;;;28.60;99.90;;;;;;5100004;22;20230;-85
2023/06/10 11:50:33;;;;;;;10.70;10.40;;;28.50;99.90;;;;;;5061411;28;20238;-85
2023/06/10 11:53:01;;;;;;;10.70;10.40;;;28.40;99.90;;;;;;5062133;28;20282;-85
2023/06/10 11:55:47;;;;;;;11.10;10.80;;;28.30;99.90;;;;;;5068811;28;20310;-86
2023/06/10 11:58:41;;;;;;;10.70;10.40;;;28.60;99.90;;;;;;5055862;28;20227;-88
2023/06/10 12:01:13;;;;;;;11.10;10.80;;;28.90;99.90;;;;;;5044164;28;20254;-88
2023/06/10 12:03:44;;;;;;;11.10;10.80;;;29.10;99.90;;;;;;5042454;28;20298;-88
2023/06/10 12:06:12;;;;;;;10.90;10.60;;;29.10;99.90;;;;;;5043025;28;20228;-87
2023/06/10 12:08:44;;;;;;;11.00;10.70;;;29.00;99.90;;;;;;5042889;28;20262;-88
2023/06/10 12:11:12;;;;;;;10.95;10.65;;;28.90;99.90;;;;;;5042665;28;20235;-86
2023/06/10 12:13:50;;;;;;;11.10;10.80;;;28.80;99.90;;;;;;5042363;28;20220;-86
2023/06/10 12:16:20;;;;;;;10.85;10.55;;;28.40;99.90;;;;;;5038728;28;20231;-86
2023/06/10 12:18:49;;;;;;;10.68;10.38;;;27.90;99.90;;;;;;5043297;28;20327;-87
2023/06/10 12:21:27;;;;;;;10.77;10.48;;;27.80;99.90;;;;;;5043585;28;20262;-87
2023/06/10 12:24:17;;;;;;;11.00;10.70;;;27.90;99.90;;;;;;5039840;28;20761;-87
2023/06/10 12:26:46;;;;;;;10.80;10.50;;;28.20;99.90;;;;;;5040238;28;20239;-87
2023/06/10 12:29:24;;;;;;;10.95;10.65;;;28.60;99.90;;;;;;5032857;28;20235;-87
2023/06/10 12:32:02;;;;;;;11.13;10.82;;;29.30;99.90;;;;;;5042532;28;20279;-87
2023/06/10 12:34:39;;;;;;;11.30;11.00;;;30.10;99.90;;;;;;5040950;28;20223;-87
2023/06/10 12:37:13;;;;;;;11.30;11.00;;;30.40;99.90;;;;;;5041826;28;20235;-88
2023/06/10 12:42:24;;;;;;;11.02;10.73;;;30.00;99.90;;;;;;5046335;28;20227;-87
2023/06/10 12:45:03;;;;;;;11.07;10.77;;;29.90;99.90;;;;;;5057486;28;20226;-85
2023/06/10 12:47:43;;;;;;;10.80;10.50;;;30.10;99.90;;;;;;5056497;28;20219;-85
2023/06/10 12:50:12;;;;;;;10.88;10.57;;;30.40;99.90;;;;;;5050942;28;20289;-86
2023/06/10 12:52:51;;;;;;;10.80;10.50;;;30.50;99.90;;;;;;5053275;28;20246;-87
2023/06/10 12:55:20;;;;;;;10.80;10.50;;;30.70;99.90;;;;;;5052471;28;20282;-86
2023/06/10 12:57:56;;;;;;;11.00;10.70;;;30.70;99.90;;;;;;5049168;28;20239;-89
2023/06/10 13:00:34;;;;;;;11.07;10.77;;;30.40;99.90;;;;;;5047016;28;20295;-88
2023/06/10 13:03:05;;;;;;;11.05;10.75;;;30.90;99.90;;;;;;5046140;28;20302;-88
2023/06/10 13:05:37;;;;;;;10.90;10.60;;;31.00;99.90;;;;;;5041280;28;20359;-89
2023/06/10 13:08:13;;;;;;;10.90;10.60;;;30.60;99.90;;;;;;5035585;28;20289;-89
2023/06/10 13:10:43;;;;;;;10.90;10.60;;;30.00;99.90;;;;;;5041843;28;20227;-89
2023/06/10 13:13:11;;;;;;;11.13;10.82;;;29.70;99.90;;;;;;5042927;28;20259;-89
2023/06/10 13:15:49;;;;;;;10.80;10.50;;;29.30;99.90;;;;;;5042730;28;20227;-89
2023/06/10 13:18:18;;;;;;;10.60;10.30;;;28.90;99.90;;;;;;5043280;28;20228;-88
2023/06/10 13:20:48;;;;;;;10.65;10.35;;;28.70;99.90;;;;;;5041899;28;20228;-89
2023/06/10 13:23:17;;;;;;;10.60;10.30;;;28.70;99.90;;;;;;5036005;28;20227;-88
2023/06/10 13:25:47;;;;;;;10.50;10.20;;;28.70;99.90;;;;;;5042868;28;20239;-89
2023/06/10 13:28:16;;;;;;;10.80;10.50;;;28.90;99.90;;;;;;5042433;28;20228;-89
2023/06/10 13:30:55;;;;;;;10.73;10.43;;;29.10;99.90;;;;;;5055958;28;20227;-89
2023/06/10 13:33:24;;;;;;;10.90;10.60;;;29.30;99.90;;;;;;5058971;28;20270;-89
2023/06/10 13:35:53;;;;;;;11.20;10.90;;;29.50;99.90;;;;;;5048189;28;20259;-89
2023/06/10 13:38:22;;;;;;;11.07;10.77;;;29.70;99.90;;;;;;5042903;28;20379;-89
2023/06/10 13:40:53;;;;;;;10.75;10.45;;;30.00;99.90;;;;;;5042774;28;20310;-88
2023/06/10 13:43:22;;;;;;;11.05;10.75;;;30.50;99.90;;;;;;5042083;28;20239;-88
2023/06/10 13:46:00;;;;;;;11.13;10.82;;;30.90;99.90;;;;;;5042877;28;20227;-89
2023/06/10 13:48:31;;;;;;;11.00;10.70;;;31.30;99.90;;;;;;5042037;28;20231;-89
2023/06/10 13:51:00;;;;;;;11.20;10.90;;;31.70;99.90;;;;;;5039381;28;20247;-89
2023/06/10 13:53:28;;;;;;;11.25;10.95;;;31.80;99.90;;;;;;5042186;28;20236;-89
2023/06/10 13:55:58;;;;;;;10.90;10.60;;;31.80;99.90;;;;;;5042440;28;20351;-88
2023/06/10 13:58:31;;;;;;;11.07;10.77;;;31.70;99.90;;;;;;5042628;28;21066;-89
2023/06/10 14:01:07;;;;;;;11.10;10.80;;;31.40;99.90;;;;;;5042209;28;20232;-89
2023/06/10 14:03:35;;;;;;;10.80;10.50;;;30.50;99.90;;;;;;5042661;28;20231;-90
2023/06/10 14:08:51;;;;;;;10.68;10.38;;;29.80;99.90;;;;;;5041584;28;20226;-90
2023/06/10 14:11:22;;;;;;;11.00;10.70;;;29.50;99.90;;;;;;5043182;28;20247;-90
2023/06/10 14:13:52;;;;;;;11.02;10.73;;;29.40;99.90;;;;;;5042713;28;20223;-91
2023/06/10 14:16:32;;;;;;;11.02;10.73;;;29.20;99.90;;;;;;5042749;28;20231;-91
2023/06/10 14:19:01;;;;;;;10.85;10.55;;;29.00;99.90;;;;;;5043382;28;20231;-90
2023/06/10 14:21:29;;;;;;;10.95;10.65;;;28.80;99.90;;;;;;5045591;28;20266;-90
2023/06/10 14:23:59;;;;;;;11.00;10.70;;;28.80;99.90;;;;;;5046758;28;20239;-90
2023/06/10 14:26:32;;;;;;;10.95;10.65;;;28.90;99.90;;;;;;5047004;28;20243;-90
2023/06/10 14:29:06;;;;;;;10.77;10.48;;;29.10;99.90;;;;;;5055214;28;20204;-91
2023/06/10 14:31:44;;;;;;;11.05;10.75;;;29.00;99.90;;;;;;5045880;28;20239;-89